sensor_id;sensor_type;location;lat;lon;timestamp;P1;durP1;ratioP1;P2;durP2;ratioP2
23702;SDS011;12030;50.376;8.762;2023-04-03T00:01:30;2.80;;;1.23;;
23702;SDS011;12030;50.376;8.762;2023-04-03T00:03:56;1.83;;;0.90;;
23702;SDS011;12030;50.376;8.762;2023-04-03T00:06:22;6.17;;;2.60;;
23702;SDS011;12030;50.376;8.762;2023-04-03T00:08:47;2.33;;;1.70;;
23702;SDS011;12030;50.376;8.762;2023-04-03T00:11:13;4.00;;;1.37;;
23702;SDS011;12030;50.376;8.762;2023-04-03T00:13:40;2.40;;;1.57;;
23702;SDS011;12030;50.376;8.762;2023-04-03T00:16:06;2.30;;;1.10;;
23702;SDS011;12030;50.376;8.762;2023-04-03T00:18:33;3.10;;;1.30;;
23702;SDS011;12030;50.376;8.762;2023-04-03T00:20:59;1.80;;;0.93;;
23702;SDS011;12030;50.376;8.762;2023-04-03T00:23:24;2.17;;;1.03;;
23702;SDS011;12030;50.376;8.762;2023-04-03T00:25:50;1.97;;;1.00;;
23702;SDS011;12030;50.376;8.762;2023-04-03T00:28:16;2.60;;;1.10;;
23702;SDS011;12030;50.376;8.762;2023-04-03T00:30:41;2.37;;;1.00;;
23702;SDS011;12030;50.376;8.762;2023-04-03T00:33:08;4.27;;;1.00;;
23702;SDS011;12030;50.376;8.762;2023-04-03T00:35:36;2.93;;;1.17;;
23702;SDS011;12030;50.376;8.762;2023-04-03T00:38:02;2.57;;;1.00;;
23702;SDS011;12030;50.376;8.762;2023-04-03T00:40:32;1.87;;;0.90;;
23702;SDS011;12030;50.376;8.762;2023-04-03T00:43:00;5.17;;;1.20;;
23702;SDS011;12030;50.376;8.762;2023-04-03T00:45:30;1.90;;;0.87;;
23702;SDS011;12030;50.376;8.762;2023-04-03T00:47:59;2.83;;;0.97;;
23702;SDS011;12030;50.376;8.762;2023-04-03T00:50:27;2.03;;;0.70;;
23702;SDS011;12030;50.376;8.762;2023-04-03T00:52:54;2.30;;;1.00;;
23702;SDS011;12030;50.376;8.762;2023-04-03T00:55:20;4.23;;;1.10;;
23702;SDS011;12030;50.376;8.762;2023-04-03T00:57:46;2.10;;;1.07;;
23702;SDS011;12030;50.376;8.762;2023-04-03T01:00:14;1.87;;;0.97;;
23702;SDS011;12030;50.376;8.762;2023-04-03T01:02:42;3.53;;;1.23;;
23702;SDS011;12030;50.376;8.762;2023-04-03T01:05:08;3.23;;;1.50;;
23702;SDS011;12030;50.376;8.762;2023-04-03T01:07:34;2.13;;;1.10;;
23702;SDS011;12030;50.376;8.762;2023-04-03T01:10:04;1.70;;;0.90;;
23702;SDS011;12030;50.376;8.762;2023-04-03T01:12:39;1.73;;;0.90;;
23702;SDS011;12030;50.376;8.762;2023-04-03T01:17:39;2.40;;;0.97;;
23702;SDS011;12030;50.376;8.762;2023-04-03T01:25:23;3.67;;;1.00;;
23702;SDS011;12030;50.376;8.762;2023-04-03T01:27:49;2.73;;;1.10;;
23702;SDS011;12030;50.376;8.762;2023-04-03T01:30:16;3.27;;;1.03;;
23702;SDS011;12030;50.376;8.762;2023-04-03T01:32:43;3.07;;;1.20;;
23702;SDS011;12030;50.376;8.762;2023-04-03T01:35:09;2.13;;;1.00;;
23702;SDS011;12030;50.376;8.762;2023-04-03T01:37:35;3.43;;;1.10;;
23702;SDS011;12030;50.376;8.762;2023-04-03T01:40:01;1.93;;;0.90;;
23702;SDS011;12030;50.376;8.762;2023-04-03T01:42:27;2.87;;;0.93;;
23702;SDS011;12030;50.376;8.762;2023-04-03T01:44:54;2.20;;;1.17;;
23702;SDS011;12030;50.376;8.762;2023-04-03T01:47:19;2.83;;;1.10;;
23702;SDS011;12030;50.376;8.762;2023-04-03T01:49:46;3.90;;;0.90;;
23702;SDS011;12030;50.376;8.762;2023-04-03T01:52:11;2.40;;;1.10;;
23702;SDS011;12030;50.376;8.762;2023-04-03T01:54:37;2.97;;;1.43;;
23702;SDS011;12030;50.376;8.762;2023-04-03T01:57:02;2.73;;;1.17;;
23702;SDS011;12030;50.376;8.762;2023-04-03T01:59:28;4.47;;;1.20;;
23702;SDS011;12030;50.376;8.762;2023-04-03T02:01:53;2.00;;;1.30;;
23702;SDS011;12030;50.376;8.762;2023-04-03T02:04:19;3.47;;;1.10;;
23702;SDS011;12030;50.376;8.762;2023-04-03T02:06:44;3.13;;;1.27;;
23702;SDS011;12030;50.376;8.762;2023-04-03T02:09:10;4.87;;;1.23;;
23702;SDS011;12030;50.376;8.762;2023-04-03T02:11:35;2.70;;;1.00;;
23702;SDS011;12030;50.376;8.762;2023-04-03T02:14:01;4.13;;;1.13;;
23702;SDS011;12030;50.376;8.762;2023-04-03T02:16:27;3.47;;;1.30;;
23702;SDS011;12030;50.376;8.762;2023-04-03T02:18:53;3.27;;;1.10;;
23702;SDS011;12030;50.376;8.762;2023-04-03T02:21:19;2.63;;;1.00;;
23702;SDS011;12030;50.376;8.762;2023-04-03T02:23:44;2.80;;;1.20;;
23702;SDS011;12030;50.376;8.762;2023-04-03T02:26:11;2.73;;;1.10;;
23702;SDS011;12030;50.376;8.762;2023-04-03T02:28:38;1.93;;;0.93;;
23702;SDS011;12030;50.376;8.762;2023-04-03T02:31:04;3.13;;;0.93;;
23702;SDS011;12030;50.376;8.762;2023-04-03T02:33:31;4.50;;;1.00;;
23702;SDS011;12030;50.376;8.762;2023-04-03T02:35:57;3.93;;;1.33;;
23702;SDS011;12030;50.376;8.762;2023-04-03T02:38:23;2.90;;;1.00;;
23702;SDS011;12030;50.376;8.762;2023-04-03T02:40:49;3.97;;;1.10;;
23702;SDS011;12030;50.376;8.762;2023-04-03T02:43:16;4.83;;;1.40;;
23702;SDS011;12030;50.376;8.762;2023-04-03T02:45:41;4.80;;;1.47;;
23702;SDS011;12030;50.376;8.762;2023-04-03T02:48:07;2.30;;;1.00;;
23702;SDS011;12030;50.376;8.762;2023-04-03T02:50:33;7.43;;;1.30;;
23702;SDS011;12030;50.376;8.762;2023-04-03T02:52:58;3.17;;;1.40;;
23702;SDS011;12030;50.376;8.762;2023-04-03T02:55:24;3.90;;;1.30;;
23702;SDS011;12030;50.376;8.762;2023-04-03T02:57:50;4.13;;;1.27;;
23702;SDS011;12030;50.376;8.762;2023-04-03T03:00:15;4.53;;;1.00;;
23702;SDS011;12030;50.376;8.762;2023-04-03T03:02:41;4.27;;;1.23;;
23702;SDS011;12030;50.376;8.762;2023-04-03T03:05:07;5.90;;;1.27;;
23702;SDS011;12030;50.376;8.762;2023-04-03T03:07:33;2.70;;;1.00;;
23702;SDS011;12030;50.376;8.762;2023-04-03T03:09:58;4.40;;;1.70;;
23702;SDS011;12030;50.376;8.762;2023-04-03T03:12:24;5.47;;;1.27;;
23702;SDS011;12030;50.376;8.762;2023-04-03T03:14:50;3.43;;;1.17;;
23702;SDS011;12030;50.376;8.762;2023-04-03T03:17:16;2.10;;;0.97;;
23702;SDS011;12030;50.376;8.762;2023-04-03T03:19:42;3.03;;;1.10;;
23702;SDS011;12030;50.376;8.762;2023-04-03T03:22:07;2.67;;;1.00;;
23702;SDS011;12030;50.376;8.762;2023-04-03T03:24:33;3.30;;;1.20;;
23702;SDS011;12030;50.376;8.762;2023-04-03T03:26:58;2.87;;;1.00;;
23702;SDS011;12030;50.376;8.762;2023-04-03T03:29:24;5.83;;;1.40;;
23702;SDS011;12030;50.376;8.762;2023-04-03T03:31:50;2.43;;;1.13;;
23702;SDS011;12030;50.376;8.762;2023-04-03T03:34:15;2.27;;;1.20;;
23702;SDS011;12030;50.376;8.762;2023-04-03T03:36:41;2.40;;;1.00;;
23702;SDS011;12030;50.376;8.762;2023-04-03T03:39:07;3.07;;;0.90;;
23702;SDS011;12030;50.376;8.762;2023-04-03T03:41:32;2.93;;;1.23;;
23702;SDS011;12030;50.376;8.762;2023-04-03T03:43:58;4.87;;;1.20;;
23702;SDS011;12030;50.376;8.762;2023-04-03T03:46:23;2.80;;;1.00;;
23702;SDS011;12030;50.376;8.762;2023-04-03T03:48:49;4.97;;;1.30;;
23702;SDS011;12030;50.376;8.762;2023-04-03T03:51:14;4.80;;;1.53;;
23702;SDS011;12030;50.376;8.762;2023-04-03T03:53:40;2.87;;;1.30;;
23702;SDS011;12030;50.376;8.762;2023-04-03T03:56:06;3.27;;;1.13;;
23702;SDS011;12030;50.376;8.762;2023-04-03T03:58:32;5.50;;;1.50;;
23702;SDS011;12030;50.376;8.762;2023-04-03T04:01:01;2.73;;;1.00;;
23702;SDS011;12030;50.376;8.762;2023-04-03T04:03:28;3.30;;;0.90;;
23702;SDS011;12030;50.376;8.762;2023-04-03T04:05:53;2.97;;;0.97;;
23702;SDS011;12030;50.376;8.762;2023-04-03T04:08:19;4.23;;;1.20;;
23702;SDS011;12030;50.376;8.762;2023-04-03T04:10:45;4.83;;;1.50;;
23702;SDS011;12030;50.376;8.762;2023-04-03T04:13:11;3.73;;;1.40;;
23702;SDS011;12030;50.376;8.762;2023-04-03T04:15:36;3.97;;;1.23;;
23702;SDS011;12030;50.376;8.762;2023-04-03T04:18:02;2.00;;;1.00;;
23702;SDS011;12030;50.376;8.762;2023-04-03T04:20:28;4.63;;;1.43;;
23702;SDS011;12030;50.376;8.762;2023-04-03T04:22:53;2.97;;;1.03;;
23702;SDS011;12030;50.376;8.762;2023-04-03T04:25:19;6.27;;;1.40;;
23702;SDS011;12030;50.376;8.762;2023-04-03T04:27:45;4.47;;;1.20;;
23702;SDS011;12030;50.376;8.762;2023-04-03T04:30:10;3.33;;;1.30;;
23702;SDS011;12030;50.376;8.762;2023-04-03T04:32:37;3.60;;;1.30;;
23702;SDS011;12030;50.376;8.762;2023-04-03T04:35:02;2.93;;;1.10;;
23702;SDS011;12030;50.376;8.762;2023-04-03T04:37:28;3.77;;;1.20;;
23702;SDS011;12030;50.376;8.762;2023-04-03T04:39:54;4.67;;;1.10;;
23702;SDS011;12030;50.376;8.762;2023-04-03T04:42:20;2.73;;;1.07;;
23702;SDS011;12030;50.376;8.762;2023-04-03T04:44:45;1.87;;;0.87;;
23702;SDS011;12030;50.376;8.762;2023-04-03T04:47:11;5.23;;;1.20;;
23702;SDS011;12030;50.376;8.762;2023-04-03T04:49:36;2.77;;;1.20;;
23702;SDS011;12030;50.376;8.762;2023-04-03T04:52:02;4.30;;;1.30;;
23702;SDS011;12030;50.376;8.762;2023-04-03T04:54:27;5.33;;;1.67;;
23702;SDS011;12030;50.376;8.762;2023-04-03T04:56:53;3.33;;;1.40;;
23702;SDS011;12030;50.376;8.762;2023-04-03T04:59:19;2.67;;;1.70;;
23702;SDS011;12030;50.376;8.762;2023-04-03T05:01:45;6.93;;;2.00;;
23702;SDS011;12030;50.376;8.762;2023-04-03T05:04:11;5.13;;;2.07;;
23702;SDS011;12030;50.376;8.762;2023-04-03T05:06:37;3.87;;;1.83;;
23702;SDS011;12030;50.376;8.762;2023-04-03T05:09:03;4.80;;;2.03;;
23702;SDS011;12030;50.376;8.762;2023-04-03T05:11:29;4.37;;;2.00;;
23702;SDS011;12030;50.376;8.762;2023-04-03T05:13:55;5.30;;;3.70;;
23702;SDS011;12030;50.376;8.762;2023-04-03T05:16:20;2.67;;;1.30;;
23702;SDS011;12030;50.376;8.762;2023-04-03T05:18:46;4.07;;;1.30;;
23702;SDS011;12030;50.376;8.762;2023-04-03T05:21:11;5.77;;;1.30;;
23702;SDS011;12030;50.376;8.762;2023-04-03T05:23:37;4.00;;;1.43;;
23702;SDS011;12030;50.376;8.762;2023-04-03T05:26:02;3.33;;;1.50;;
23702;SDS011;12030;50.376;8.762;2023-04-03T05:28:28;4.47;;;1.40;;
23702;SDS011;12030;50.376;8.762;2023-04-03T05:30:54;4.40;;;1.67;;
23702;SDS011;12030;50.376;8.762;2023-04-03T05:33:21;6.77;;;1.17;;
23702;SDS011;12030;50.376;8.762;2023-04-03T05:35:47;4.83;;;1.53;;
23702;SDS011;12030;50.376;8.762;2023-04-03T05:38:13;5.93;;;1.60;;
23702;SDS011;12030;50.376;8.762;2023-04-03T05:40:38;3.80;;;1.73;;
23702;SDS011;12030;50.376;8.762;2023-04-03T05:43:04;8.47;;;4.07;;
23702;SDS011;12030;50.376;8.762;2023-04-03T05:45:30;16.17;;;7.47;;
23702;SDS011;12030;50.376;8.762;2023-04-03T05:47:55;9.10;;;2.93;;
23702;SDS011;12030;50.376;8.762;2023-04-03T05:50:21;5.77;;;3.33;;
23702;SDS011;12030;50.376;8.762;2023-04-03T05:52:47;7.70;;;4.00;;
23702;SDS011;12030;50.376;8.762;2023-04-03T05:55:15;9.37;;;3.77;;
23702;SDS011;12030;50.376;8.762;2023-04-03T05:57:41;6.23;;;2.80;;
23702;SDS011;12030;50.376;8.762;2023-04-03T06:00:07;5.30;;;2.43;;
23702;SDS011;12030;50.376;8.762;2023-04-03T06:02:37;7.37;;;3.10;;
23702;SDS011;12030;50.376;8.762;2023-04-03T06:05:03;3.40;;;2.20;;
23702;SDS011;12030;50.376;8.762;2023-04-03T06:07:30;5.97;;;2.30;;
23702;SDS011;12030;50.376;8.762;2023-04-03T06:09:56;4.70;;;1.73;;
23702;SDS011;12030;50.376;8.762;2023-04-03T06:12:22;6.87;;;2.30;;
23702;SDS011;12030;50.376;8.762;2023-04-03T06:14:48;4.60;;;1.67;;
23702;SDS011;12030;50.376;8.762;2023-04-03T06:17:14;3.97;;;1.80;;
23702;SDS011;12030;50.376;8.762;2023-04-03T06:19:40;3.87;;;1.70;;
23702;SDS011;12030;50.376;8.762;2023-04-03T06:22:06;6.60;;;2.30;;
23702;SDS011;12030;50.376;8.762;2023-04-03T06:24:32;5.73;;;2.10;;
23702;SDS011;12030;50.376;8.762;2023-04-03T06:26:58;4.23;;;1.87;;
23702;SDS011;12030;50.376;8.762;2023-04-03T06:29:24;4.00;;;1.90;;
23702;SDS011;12030;50.376;8.762;2023-04-03T06:31:50;3.77;;;1.70;;
23702;SDS011;12030;50.376;8.762;2023-04-03T06:34:16;5.23;;;2.07;;
23702;SDS011;12030;50.376;8.762;2023-04-03T06:36:43;6.23;;;1.90;;
23702;SDS011;12030;50.376;8.762;2023-04-03T06:39:13;3.50;;;1.40;;
23702;SDS011;12030;50.376;8.762;2023-04-03T06:41:41;4.87;;;1.87;;
23702;SDS011;12030;50.376;8.762;2023-04-03T06:44:07;4.23;;;2.13;;
23702;SDS011;12030;50.376;8.762;2023-04-03T06:46:36;3.63;;;2.07;;
23702;SDS011;12030;50.376;8.762;2023-04-03T06:49:02;3.60;;;1.80;;
23702;SDS011;12030;50.376;8.762;2023-04-03T06:51:28;3.20;;;1.70;;
23702;SDS011;12030;50.376;8.762;2023-04-03T06:53:56;5.17;;;2.10;;
23702;SDS011;12030;50.376;8.762;2023-04-03T06:56:23;5.70;;;1.90;;
23702;SDS011;12030;50.376;8.762;2023-04-03T06:58:50;6.67;;;1.97;;
23702;SDS011;12030;50.376;8.762;2023-04-03T07:01:16;6.53;;;2.10;;
23702;SDS011;12030;50.376;8.762;2023-04-03T07:03:44;6.17;;;1.83;;
23702;SDS011;12030;50.376;8.762;2023-04-03T07:06:11;4.07;;;1.27;;
23702;SDS011;12030;50.376;8.762;2023-04-03T07:08:37;3.73;;;1.70;;
23702;SDS011;12030;50.376;8.762;2023-04-03T07:11:03;5.30;;;1.83;;
23702;SDS011;12030;50.376;8.762;2023-04-03T07:13:29;4.73;;;1.77;;
23702;SDS011;12030;50.376;8.762;2023-04-03T07:15:55;3.83;;;1.63;;
23702;SDS011;12030;50.376;8.762;2023-04-03T07:18:21;5.40;;;1.70;;
23702;SDS011;12030;50.376;8.762;2023-04-03T07:20:47;5.07;;;1.83;;
23702;SDS011;12030;50.376;8.762;2023-04-03T07:23:12;5.83;;;2.43;;
23702;SDS011;12030;50.376;8.762;2023-04-03T07:25:47;4.00;;;1.80;;
23702;SDS011;12030;50.376;8.762;2023-04-03T07:28:15;8.23;;;1.90;;
23702;SDS011;12030;50.376;8.762;2023-04-03T07:30:43;3.93;;;1.60;;
23702;SDS011;12030;50.376;8.762;2023-04-03T07:33:16;6.33;;;2.17;;
23702;SDS011;12030;50.376;8.762;2023-04-03T07:35:46;4.53;;;1.60;;
23702;SDS011;12030;50.376;8.762;2023-04-03T07:38:12;5.20;;;1.50;;
23702;SDS011;12030;50.376;8.762;2023-04-03T07:40:38;4.77;;;1.73;;
23702;SDS011;12030;50.376;8.762;2023-04-03T07:43:05;4.67;;;1.73;;
23702;SDS011;12030;50.376;8.762;2023-04-03T07:45:31;5.63;;;1.70;;
23702;SDS011;12030;50.376;8.762;2023-04-03T07:47:56;3.50;;;1.33;;
23702;SDS011;12030;50.376;8.762;2023-04-03T07:50:22;4.50;;;1.50;;
23702;SDS011;12030;50.376;8.762;2023-04-03T07:52:48;3.70;;;1.73;;
23702;SDS011;12030;50.376;8.762;2023-04-03T07:55:15;2.00;;;1.10;;
23702;SDS011;12030;50.376;8.762;2023-04-03T07:57:41;7.20;;;1.60;;
23702;SDS011;12030;50.376;8.762;2023-04-03T08:00:07;4.77;;;1.10;;
23702;SDS011;12030;50.376;8.762;2023-04-03T08:02:34;3.63;;;1.30;;
23702;SDS011;12030;50.376;8.762;2023-04-03T08:05:00;3.00;;;1.40;;
23702;SDS011;12030;50.376;8.762;2023-04-03T08:07:25;3.23;;;1.20;;
23702;SDS011;12030;50.376;8.762;2023-04-03T08:09:51;2.80;;;1.40;;
23702;SDS011;12030;50.376;8.762;2023-04-03T08:12:17;4.40;;;1.60;;
23702;SDS011;12030;50.376;8.762;2023-04-03T08:14:43;3.83;;;1.60;;
23702;SDS011;12030;50.376;8.762;2023-04-03T08:17:09;1.87;;;1.13;;
23702;SDS011;12030;50.376;8.762;2023-04-03T08:19:37;3.90;;;1.40;;
23702;SDS011;12030;50.376;8.762;2023-04-03T08:22:03;3.10;;;1.33;;
23702;SDS011;12030;50.376;8.762;2023-04-03T08:24:30;6.47;;;2.07;;
23702;SDS011;12030;50.376;8.762;2023-04-03T08:26:56;5.50;;;2.03;;
23702;SDS011;12030;50.376;8.762;2023-04-03T08:29:22;3.83;;;1.30;;
23702;SDS011;12030;50.376;8.762;2023-04-03T08:31:48;2.70;;;1.20;;
23702;SDS011;12030;50.376;8.762;2023-04-03T08:34:15;6.77;;;2.00;;
23702;SDS011;12030;50.376;8.762;2023-04-03T08:36:42;5.10;;;2.20;;
23702;SDS011;12030;50.376;8.762;2023-04-03T08:39:08;5.60;;;1.70;;
23702;SDS011;12030;50.376;8.762;2023-04-03T08:41:37;8.03;;;3.63;;
23702;SDS011;12030;50.376;8.762;2023-04-03T08:51:51;5.77;;;1.87;;
23702;SDS011;12030;50.376;8.762;2023-04-03T08:54:46;7.70;;;1.83;;
23702;SDS011;12030;50.376;8.762;2023-04-03T08:57:33;4.03;;;1.70;;
23702;SDS011;12030;50.376;8.762;2023-04-03T09:00:05;6.23;;;1.63;;
23702;SDS011;12030;50.376;8.762;2023-04-03T09:02:44;6.00;;;1.63;;
23702;SDS011;12030;50.376;8.762;2023-04-03T09:05:12;3.80;;;1.40;;
23702;SDS011;12030;50.376;8.762;2023-04-03T09:07:43;4.97;;;1.50;;
23702;SDS011;12030;50.376;8.762;2023-04-03T09:10:23;2.73;;;1.40;;
23702;SDS011;12030;50.376;8.762;2023-04-03T09:13:03;4.33;;;1.40;;
23702;SDS011;12030;50.376;8.762;2023-04-03T09:15:33;3.23;;;1.30;;
23702;SDS011;12030;50.376;8.762;2023-04-03T09:18:32;4.93;;;1.37;;
23702;SDS011;12030;50.376;8.762;2023-04-03T09:21:07;2.23;;;1.20;;
23702;SDS011;12030;50.376;8.762;2023-04-03T09:23:50;4.70;;;1.90;;
23702;SDS011;12030;50.376;8.762;2023-04-03T09:26:23;3.17;;;1.60;;
23702;SDS011;12030;50.376;8.762;2023-04-03T09:28:54;2.47;;;1.20;;
23702;SDS011;12030;50.376;8.762;2023-04-03T09:31:23;2.50;;;1.13;;
23702;SDS011;12030;50.376;8.762;2023-04-03T09:33:51;4.67;;;1.70;;
23702;SDS011;12030;50.376;8.762;2023-04-03T09:39:16;3.67;;;1.27;;
23702;SDS011;12030;50.376;8.762;2023-04-03T09:41:56;2.60;;;1.30;;
23702;SDS011;12030;50.376;8.762;2023-04-03T09:44:32;2.60;;;1.10;;
23702;SDS011;12030;50.376;8.762;2023-04-03T09:47:00;3.83;;;1.93;;
23702;SDS011;12030;50.376;8.762;2023-04-03T09:50:18;4.13;;;1.60;;
23702;SDS011;12030;50.376;8.762;2023-04-03T09:52:49;4.57;;;1.50;;
23702;SDS011;12030;50.376;8.762;2023-04-03T09:55:20;4.70;;;1.67;;
23702;SDS011;12030;50.376;8.762;2023-04-03T09:57:55;2.77;;;1.50;;
23702;SDS011;12030;50.376;8.762;2023-04-03T10:00:44;5.73;;;1.60;;
23702;SDS011;12030;50.376;8.762;2023-04-03T10:03:23;2.83;;;1.17;;
23702;SDS011;12030;50.376;8.762;2023-04-03T10:05:55;2.97;;;1.20;;
23702;SDS011;12030;50.376;8.762;2023-04-03T10:08:24;1.97;;;1.10;;
23702;SDS011;12030;50.376;8.762;2023-04-03T10:13:51;2.90;;;1.20;;
23702;SDS011;12030;50.376;8.762;2023-04-03T10:16:20;2.87;;;1.10;;
23702;SDS011;12030;50.376;8.762;2023-04-03T10:18:53;4.10;;;1.10;;
23702;SDS011;12030;50.376;8.762;2023-04-03T10:21:38;2.23;;;1.27;;
23702;SDS011;12030;50.376;8.762;2023-04-03T10:29:16;3.87;;;1.50;;
23702;SDS011;12030;50.376;8.762;2023-04-03T10:34:24;3.03;;;1.30;;
23702;SDS011;12030;50.376;8.762;2023-04-03T10:37:13;3.07;;;1.33;;
23702;SDS011;12030;50.376;8.762;2023-04-03T10:40:02;2.73;;;1.33;;
23702;SDS011;12030;50.376;8.762;2023-04-03T10:42:47;2.37;;;1.30;;
23702;SDS011;12030;50.376;8.762;2023-04-03T10:45:55;2.93;;;1.20;;
23702;SDS011;12030;50.376;8.762;2023-04-03T10:51:22;1.67;;;1.00;;
23702;SDS011;12030;50.376;8.762;2023-04-03T10:56:48;3.57;;;1.10;;
23702;SDS011;12030;50.376;8.762;2023-04-03T10:59:18;4.93;;;1.67;;
23702;SDS011;12030;50.376;8.762;2023-04-03T11:01:48;6.93;;;1.80;;
23702;SDS011;12030;50.376;8.762;2023-04-03T11:04:17;2.77;;;1.30;;
23702;SDS011;12030;50.376;8.762;2023-04-03T11:06:54;3.60;;;1.70;;
23702;SDS011;12030;50.376;8.762;2023-04-03T11:09:35;3.67;;;1.47;;
23702;SDS011;12030;50.376;8.762;2023-04-03T11:12:06;2.90;;;1.50;;
23702;SDS011;12030;50.376;8.762;2023-04-03T11:14:43;2.67;;;1.10;;
23702;SDS011;12030;50.376;8.762;2023-04-03T11:22:30;2.40;;;1.13;;
23702;SDS011;12030;50.376;8.762;2023-04-03T11:25:23;4.67;;;1.40;;
23702;SDS011;12030;50.376;8.762;2023-04-03T11:30:20;2.53;;;1.20;;
23702;SDS011;12030;50.376;8.762;2023-04-03T11:35:21;2.53;;;1.03;;
23702;SDS011;12030;50.376;8.762;2023-04-03T11:37:48;2.60;;;1.17;;
23702;SDS011;12030;50.376;8.762;2023-04-03T11:40:24;3.00;;;1.23;;
23702;SDS011;12030;50.376;8.762;2023-04-03T11:42:54;4.73;;;1.47;;
23702;SDS011;12030;50.376;8.762;2023-04-03T11:45:34;2.07;;;1.10;;
23702;SDS011;12030;50.376;8.762;2023-04-03T11:50:54;1.27;;;0.90;;
23702;SDS011;12030;50.376;8.762;2023-04-03T12:01:46;3.07;;;1.23;;
23702;SDS011;12030;50.376;8.762;2023-04-03T12:04:14;4.03;;;1.13;;
23702;SDS011;12030;50.376;8.762;2023-04-03T12:06:47;2.50;;;1.20;;
23702;SDS011;12030;50.376;8.762;2023-04-03T12:09:34;2.50;;;1.00;;
23702;SDS011;12030;50.376;8.762;2023-04-03T12:15:12;4.03;;;1.27;;
23702;SDS011;12030;50.376;8.762;2023-04-03T12:17:50;3.63;;;1.00;;
23702;SDS011;12030;50.376;8.762;2023-04-03T12:23:26;2.77;;;0.93;;
23702;SDS011;12030;50.376;8.762;2023-04-03T12:26:02;3.23;;;1.30;;
23702;SDS011;12030;50.376;8.762;2023-04-03T12:28:44;2.80;;;1.30;;
23702;SDS011;12030;50.376;8.762;2023-04-03T12:31:11;2.00;;;1.30;;
23702;SDS011;12030;50.376;8.762;2023-04-03T12:39:56;2.20;;;0.80;;
23702;SDS011;12030;50.376;8.762;2023-04-03T12:42:18;2.53;;;0.87;;
23702;SDS011;12030;50.376;8.762;2023-04-03T12:45:02;3.50;;;1.20;;
23702;SDS011;12030;50.376;8.762;2023-04-03T12:47:43;2.40;;;0.90;;
23702;SDS011;12030;50.376;8.762;2023-04-03T12:50:20;2.67;;;0.93;;
23702;SDS011;12030;50.376;8.762;2023-04-03T12:52:56;1.80;;;0.83;;
23702;SDS011;12030;50.376;8.762;2023-04-03T12:55:26;1.40;;;0.90;;
23702;SDS011;12030;50.376;8.762;2023-04-03T12:57:52;2.43;;;1.17;;
23702;SDS011;12030;50.376;8.762;2023-04-03T13:03:00;1.80;;;0.90;;
23702;SDS011;12030;50.376;8.762;2023-04-03T13:05:27;3.73;;;1.10;;
23702;SDS011;12030;50.376;8.762;2023-04-03T13:07:57;1.73;;;0.83;;
23702;SDS011;12030;50.376;8.762;2023-04-03T13:10:28;1.47;;;0.70;;
23702;SDS011;12030;50.376;8.762;2023-04-03T13:12:55;1.60;;;0.70;;
23702;SDS011;12030;50.376;8.762;2023-04-03T13:15:25;3.50;;;0.90;;
23702;SDS011;12030;50.376;8.762;2023-04-03T13:18:05;3.30;;;1.03;;
23702;SDS011;12030;50.376;8.762;2023-04-03T13:20:45;3.53;;;1.00;;
23702;SDS011;12030;50.376;8.762;2023-04-03T13:23:13;2.40;;;0.87;;
23702;SDS011;12030;50.376;8.762;2023-04-03T13:25:43;2.03;;;0.77;;
23702;SDS011;12030;50.376;8.762;2023-04-03T13:28:11;2.80;;;0.83;;
23702;SDS011;12030;50.376;8.762;2023-04-03T13:30:40;3.00;;;1.20;;
23702;SDS011;12030;50.376;8.762;2023-04-03T13:33:20;2.97;;;0.93;;
23702;SDS011;12030;50.376;8.762;2023-04-03T13:35:54;1.47;;;0.80;;
23702;SDS011;12030;50.376;8.762;2023-04-03T13:38:23;3.57;;;0.90;;
23702;SDS011;12030;50.376;8.762;2023-04-03T13:40:55;2.77;;;0.90;;
23702;SDS011;12030;50.376;8.762;2023-04-03T13:43:23;2.13;;;0.80;;
23702;SDS011;12030;50.376;8.762;2023-04-03T13:45:58;2.33;;;0.83;;
23702;SDS011;12030;50.376;8.762;2023-04-03T13:48:24;1.70;;;0.70;;
23702;SDS011;12030;50.376;8.762;2023-04-03T13:50:51;1.73;;;0.70;;
23702;SDS011;12030;50.376;8.762;2023-04-03T13:53:21;3.17;;;1.10;;
23702;SDS011;12030;50.376;8.762;2023-04-03T13:56:07;1.70;;;0.90;;
23702;SDS011;12030;50.376;8.762;2023-04-03T13:58:51;1.37;;;0.67;;
23702;SDS011;12030;50.376;8.762;2023-04-03T14:01:20;1.73;;;0.90;;
23702;SDS011;12030;50.376;8.762;2023-04-03T14:03:52;3.17;;;0.87;;
23702;SDS011;12030;50.376;8.762;2023-04-03T14:06:22;3.37;;;0.97;;
23702;SDS011;12030;50.376;8.762;2023-04-03T14:08:49;1.77;;;0.73;;
23702;SDS011;12030;50.376;8.762;2023-04-03T14:11:16;1.87;;;0.93;;
23702;SDS011;12030;50.376;8.762;2023-04-03T14:13:44;2.90;;;0.90;;
23702;SDS011;12030;50.376;8.762;2023-04-03T14:16:12;1.93;;;0.60;;
23702;SDS011;12030;50.376;8.762;2023-04-03T14:18:41;1.53;;;0.70;;
23702;SDS011;12030;50.376;8.762;2023-04-03T14:21:08;1.87;;;0.80;;
23702;SDS011;12030;50.376;8.762;2023-04-03T14:23:38;2.43;;;0.83;;
23702;SDS011;12030;50.376;8.762;2023-04-03T14:26:04;2.10;;;0.93;;
23702;SDS011;12030;50.376;8.762;2023-04-03T14:28:42;0.97;;;0.73;;
23702;SDS011;12030;50.376;8.762;2023-04-03T14:31:09;2.33;;;0.67;;
23702;SDS011;12030;50.376;8.762;2023-04-03T14:33:36;1.73;;;0.80;;
23702;SDS011;12030;50.376;8.762;2023-04-03T14:36:22;2.70;;;0.83;;
23702;SDS011;12030;50.376;8.762;2023-04-03T14:38:50;1.40;;;0.60;;
23702;SDS011;12030;50.376;8.762;2023-04-03T14:41:18;2.93;;;0.73;;
23702;SDS011;12030;50.376;8.762;2023-04-03T14:43:46;2.77;;;0.80;;
23702;SDS011;12030;50.376;8.762;2023-04-03T14:46:14;3.60;;;1.73;;
23702;SDS011;12030;50.376;8.762;2023-04-03T14:48:41;1.73;;;1.07;;
23702;SDS011;12030;50.376;8.762;2023-04-03T14:51:09;4.17;;;0.90;;
23702;SDS011;12030;50.376;8.762;2023-04-03T14:53:36;3.00;;;1.00;;
23702;SDS011;12030;50.376;8.762;2023-04-03T14:56:02;2.97;;;0.80;;
23702;SDS011;12030;50.376;8.762;2023-04-03T14:58:29;1.20;;;0.70;;
23702;SDS011;12030;50.376;8.762;2023-04-03T15:00:57;3.93;;;1.13;;
23702;SDS011;12030;50.376;8.762;2023-04-03T15:03:22;2.20;;;0.70;;
23702;SDS011;12030;50.376;8.762;2023-04-03T15:05:48;2.10;;;0.60;;
23702;SDS011;12030;50.376;8.762;2023-04-03T15:10:45;4.97;;;1.47;;
23702;SDS011;12030;50.376;8.762;2023-04-03T15:13:11;2.20;;;0.63;;
23702;SDS011;12030;50.376;8.762;2023-04-03T15:15:38;5.50;;;1.10;;
23702;SDS011;12030;50.376;8.762;2023-04-03T15:18:03;2.27;;;0.80;;
23702;SDS011;12030;50.376;8.762;2023-04-03T15:20:30;3.33;;;1.33;;
23702;SDS011;12030;50.376;8.762;2023-04-03T15:22:58;1.83;;;1.07;;
23702;SDS011;12030;50.376;8.762;2023-04-03T15:25:27;2.23;;;0.87;;
23702;SDS011;12030;50.376;8.762;2023-04-03T15:27:54;3.63;;;1.17;;
23702;SDS011;12030;50.376;8.762;2023-04-03T15:30:21;1.67;;;0.87;;
23702;SDS011;12030;50.376;8.762;2023-04-03T15:32:47;3.23;;;1.10;;
23702;SDS011;12030;50.376;8.762;2023-04-03T15:35:13;2.60;;;1.10;;
23702;SDS011;12030;50.376;8.762;2023-04-03T15:37:40;3.30;;;1.03;;
23702;SDS011;12030;50.376;8.762;2023-04-03T15:40:05;2.10;;;1.10;;
23702;SDS011;12030;50.376;8.762;2023-04-03T15:42:32;3.30;;;1.13;;
23702;SDS011;12030;50.376;8.762;2023-04-03T15:44:57;2.90;;;0.90;;
23702;SDS011;12030;50.376;8.762;2023-04-03T15:47:24;3.03;;;1.30;;
23702;SDS011;12030;50.376;8.762;2023-04-03T15:49:50;2.33;;;1.13;;
23702;SDS011;12030;50.376;8.762;2023-04-03T15:52:16;2.07;;;1.00;;
23702;SDS011;12030;50.376;8.762;2023-04-03T15:54:41;1.90;;;1.00;;
23702;SDS011;12030;50.376;8.762;2023-04-03T15:57:07;3.13;;;1.20;;
23702;SDS011;12030;50.376;8.762;2023-04-03T15:59:32;3.63;;;1.00;;
23702;SDS011;12030;50.376;8.762;2023-04-03T16:01:58;1.87;;;1.17;;
23702;SDS011;12030;50.376;8.762;2023-04-03T16:04:26;2.20;;;0.90;;
23702;SDS011;12030;50.376;8.762;2023-04-03T16:06:52;2.70;;;0.80;;
23702;SDS011;12030;50.376;8.762;2023-04-03T16:09:18;1.67;;;0.80;;
23702;SDS011;12030;50.376;8.762;2023-04-03T16:11:44;2.03;;;1.13;;